Time;durP1;ratioP1;P1;durP2;ratioP2;P2;SDS_P1;SDS_P2;PMS_P1;PMS_P2;Temp;Humidity;BMP_temperature;BMP_pressure;BME280_temperature;BME280_humidity;BME280_pressure;Samples;Min_cycle;Max_cycle;Signal;HPM_P1;HPM_P2
2023/03/10 00:02:50;;;;;;;29.98;13.50;;;5.30;99.90;;;;;;20907673;28;20509;-52
2023/03/10 00:12:52;;;;;;;23.35;13.48;;;5.40;99.90;;;;;;20908699;28;20045;-47
2023/03/10 00:22:53;;;;;;;27.55;13.90;;;5.50;99.90;;;;;;20906974;28;20033;-48
2023/03/10 00:32:55;;;;;;;24.45;14.00;;;5.50;99.90;;;;;;20906700;28;20037;-56
2023/03/10 00:42:58;;;;;;;28.60;16.00;;;5.20;99.90;;;;;;20906172;28;20029;-49
2023/03/10 00:52:59;;;;;;;33.13;16.55;;;5.10;99.90;;;;;;20904502;28;20040;-50
2023/03/10 01:03:01;;;;;;;32.45;16.80;;;5.00;99.90;;;;;;20904371;28;20346;-57
2023/03/10 01:13:03;;;;;;;27.15;15.65;;;4.80;99.90;;;;;;20902546;28;20106;-49
2023/03/10 01:23:05;;;;;;;32.33;15.88;;;4.90;99.90;;;;;;20904135;28;20049;-46
2023/03/10 01:33:08;;;;;;;27.27;16.42;;;4.90;99.90;;;;;;20901508;28;20391;-48
2023/03/10 01:43:38;;;;;;;38.70;20.48;;;5.10;99.90;;;;;;20902635;28;20489;-49
2023/03/10 01:53:39;;;;;;;41.83;22.42;;;5.30;99.90;;;;;;20900892;28;20552;-55
2023/03/10 02:03:57;;;;;;;38.70;20.98;;;5.40;99.90;;;;;;20913438;28;20079;-57
2023/03/10 02:14:03;;;;;;;37.60;19.45;;;5.50;99.90;;;;;;20917122;28;20048;-57
2023/03/10 02:24:30;;;;;;;35.50;18.92;;;5.30;99.90;;;;;;20915126;28;20497;-57
2023/03/10 02:34:32;;;;;;;32.20;17.65;;;5.40;99.90;;;;;;20915771;28;20048;-57
2023/03/10 02:44:35;;;;;;;34.38;18.42;;;5.40;99.90;;;;;;20914121;28;20106;-57
2023/03/10 02:54:37;;;;;;;35.20;16.35;;;5.40;99.90;;;;;;20914183;28;20079;-51
2023/03/10 03:04:39;;;;;;;28.38;14.73;;;5.40;99.90;;;;;;20912199;28;20059;-57
2023/03/10 03:14:42;;;;;;;22.23;14.10;;;5.40;99.90;;;;;;20910668;28;20075;-57
2023/03/10 03:24:43;;;;;;;26.42;14.60;;;5.50;99.90;;;;;;20910752;28;20041;-47
2023/03/10 03:34:45;;;;;;;33.47;16.08;;;5.50;99.90;;;;;;20911016;28;20041;-57
2023/03/10 03:44:48;;;;;;;23.17;13.70;;;5.50;99.90;;;;;;20909735;28;20041;-57
2023/03/10 03:54:50;;;;;;;21.63;12.55;;;5.50;99.90;;;;;;20909670;28;20441;-57
2023/03/10 04:04:54;;;;;;;33.55;16.25;;;5.40;99.90;;;;;;20908892;28;20398;-57
2023/03/10 04:14:57;;;;;;;25.48;12.93;;;5.20;99.90;;;;;;20907088;28;20045;-47
2023/03/10 04:24:59;;;;;;;25.83;13.55;;;5.20;99.90;;;;;;20905841;28;20466;-57
2023/03/10 04:35:01;;;;;;;27.08;14.57;;;5.20;99.90;;;;;;20905043;28;20442;-57
2023/03/10 04:45:04;;;;;;;28.50;14.98;;;5.30;99.90;;;;;;20905804;28;20033;-57
2023/03/10 04:55:06;;;;;;;26.02;15.38;;;5.30;99.90;;;;;;20903580;28;20025;-56
2023/03/10 05:05:08;;;;;;;33.30;17.50;;;5.50;99.90;;;;;;20904349;28;20075;-57
2023/03/10 05:15:13;;;;;;;34.40;16.77;;;5.50;99.90;;;;;;20902986;28;20470;-51
2023/03/10 05:25:15;;;;;;;28.73;16.17;;;5.50;99.90;;;;;;20902102;28;20025;-57
2023/03/10 05:35:17;;;;;;;28.20;14.52;;;5.50;99.90;;;;;;20902266;28;20355;-56
2023/03/10 05:45:20;;;;;;;35.45;17.13;;;5.40;99.90;;;;;;20901155;28;20041;-57
2023/03/10 05:55:23;;;;;;;29.15;16.40;;;5.40;99.90;;;;;;20900936;28;20102;-47
2023/03/10 06:05:26;;;;;;;30.58;16.05;;;5.40;99.90;;;;;;20900141;28;20037;-56
2023/03/10 06:15:28;;;;;;;32.85;16.88;;;5.40;99.90;;;;;;20901365;28;20033;-57
2023/03/10 06:25:30;;;;;;;29.63;16.70;;;5.40;99.90;;;;;;20903495;28;20056;-50
2023/03/10 06:35:31;;;;;;;32.75;17.05;;;5.40;99.90;;;;;;20900338;28;20033;-57
2023/03/10 06:45:33;;;;;;;36.28;17.77;;;5.60;99.90;;;;;;20904474;28;20031;-57
2023/03/10 06:55:35;;;;;;;37.38;17.38;;;5.60;99.90;;;;;;20913407;28;20029;-56
2023/03/10 07:05:37;;;;;;;27.42;15.35;;;5.70;99.90;;;;;;20913285;28;20037;-57
2023/03/10 07:15:39;;;;;;;27.80;14.82;;;5.80;99.90;;;;;;20913101;28;20541;-56
2023/03/10 07:25:40;;;;;;;28.77;14.38;;;5.80;99.90;;;;;;20912380;28;20040;-48
2023/03/10 07:35:42;;;;;;;39.53;15.70;;;5.80;99.90;;;;;;20911895;28;20041;-49
2023/03/10 07:45:44;;;;;;;30.55;15.77;;;5.90;99.90;;;;;;20910805;28;20025;-48
2023/03/10 07:55:45;;;;;;;28.92;14.38;;;6.10;99.90;;;;;;20909579;28;20035;-57
2023/03/10 08:05:47;;;;;;;24.10;11.98;;;6.60;99.90;;;;;;20908890;28;20041;-57
2023/03/10 08:15:48;;;;;;;25.05;11.73;;;7.10;99.90;;;;;;20908354;28;20025;-56
2023/03/10 08:25:51;;;;;;;24.60;12.45;;;7.20;99.90;;;;;;20907597;28;20045;-57
2023/03/10 08:36:27;;;;;;;20.55;9.68;;;7.30;99.90;;;;;;20906639;28;20041;-55
2023/03/10 08:46:30;;;;;;;22.58;11.38;;;8.60;99.90;;;;;;20731951;28;20073;-56
2023/03/10 08:56:32;;;;;;;14.68;9.27;;;9.00;99.90;;;;;;20731491;28;20581;-54
2023/03/10 09:06:35;;;;;;;12.60;7.10;;;9.90;99.90;;;;;;20729401;28;20144;-51
2023/03/10 09:16:38;;;;;;;15.98;6.80;;;11.20;99.90;;;;;;20788721;28;20430;-55
2023/03/10 09:26:40;;;;;;;15.90;7.55;;;11.90;99.90;;;;;;20903852;28;20033;-54
2023/03/10 09:36:42;;;;;;;11.05;5.63;;;11.90;99.90;;;;;;20901456;28;20029;-55
2023/03/10 09:47:11;;;;;;;13.73;5.97;;;11.40;99.90;;;;;;20902369;28;20045;-57
2023/03/10 09:57:17;;;;;;;11.35;5.85;;;10.80;99.90;;;;;;20905369;28;20389;-54
2023/03/10 10:07:23;;;;;;;14.07;7.30;;;10.90;99.90;;;;;;20926529;28;20037;-48
2023/03/10 10:17:47;;;;;;;15.20;7.88;;;12.00;99.90;;;;;;20902617;28;20033;-55
2023/03/10 10:27:54;;;;;;;13.00;7.53;;;12.10;99.90;;;;;;20917836;28;20091;-57
2023/03/10 10:38:04;;;;;;;12.32;6.50;;;11.50;99.90;;;;;;20916345;28;20041;-52
2023/03/10 10:48:26;;;;;;;15.43;7.80;;;11.70;99.90;;;;;;20915452;28;20037;-56
2023/03/10 10:58:32;;;;;;;15.98;7.40;;;11.40;99.90;;;;;;20915047;28;20041;-52
2023/03/10 11:08:38;;;;;;;21.85;8.73;;;12.40;99.90;;;;;;20913697;28;20099;-55
2023/03/10 11:18:48;;;;;;;15.85;8.88;;;12.60;99.90;;;;;;20913092;28;20094;-48
2023/03/10 11:29:00;;;;;;;17.73;9.23;;;12.60;99.90;;;;;;20913119;28;20082;-51
2023/03/10 11:39:32;;;;;;;16.02;10.15;;;11.90;99.90;;;;;;20911700;28;20040;-54
2023/03/10 11:49:40;;;;;;;17.50;10.88;;;12.40;99.90;;;;;;20910846;28;20151;-55
2023/03/10 12:00:06;;;;;;;18.83;9.70;;;12.70;99.90;;;;;;20909224;28;20417;-55
2023/03/10 12:10:13;;;;;;;17.17;9.32;;;14.20;99.90;;;;;;20909078;28;20041;-54
2023/03/10 12:20:16;;;;;;;14.38;9.68;;;15.20;99.90;;;;;;20908262;28;20086;-57
2023/03/10 12:31:00;;;;;;;14.80;7.28;;;14.30;99.90;;;;;;20907869;28;20033;-49
2023/03/10 12:41:03;;;;;;;13.05;7.20;;;12.50;99.90;;;;;;20907251;28;20028;-56
2023/03/10 12:51:12;;;;;;;11.98;7.50;;;12.70;99.90;;;;;;20906494;28;20063;-52
2023/03/10 13:01:20;;;;;;;17.25;9.70;;;12.30;99.90;;;;;;20905676;28;20055;-49
2023/03/10 13:11:26;;;;;;;19.83;12.02;;;11.80;99.90;;;;;;20905071;28;20443;-57
2023/03/10 13:21:36;;;;;;;18.98;10.75;;;11.80;99.90;;;;;;20903556;28;20057;-58
2023/03/10 13:31:37;;;;;;;17.00;9.82;;;11.30;99.90;;;;;;20903247;28;20427;-57
2023/03/10 13:41:42;;;;;;;17.92;10.82;;;11.70;99.90;;;;;;20902775;28;20045;-50
2023/03/10 13:51:59;;;;;;;19.08;11.52;;;11.20;99.90;;;;;;20902516;28;20037;-58
2023/03/10 14:02:01;;;;;;;17.52;11.25;;;10.50;99.90;;;;;;20918452;28;20025;-54
2023/03/10 14:12:03;;;;;;;21.55;11.40;;;10.20;99.90;;;;;;20918904;28;20049;-58
2023/03/10 14:22:31;;;;;;;16.27;10.27;;;9.90;99.90;;;;;;20917136;28;20094;-57
2023/03/10 14:32:33;;;;;;;15.30;9.10;;;9.70;99.90;;;;;;20916329;28;20041;-53
2023/03/10 14:42:35;;;;;;;18.67;8.93;;;9.70;99.90;;;;;;20917013;28;20025;-51
2023/03/10 14:52:36;;;;;;;17.15;9.00;;;9.90;99.90;;;;;;20914645;28;20025;-51
2023/03/10 15:02:38;;;;;;;19.00;9.80;;;10.10;99.90;;;;;;20914186;28;20063;-50
2023/03/10 15:12:41;;;;;;;20.38;10.02;;;10.20;99.90;;;;;;20912583;28;20056;-58
2023/03/10 15:22:44;;;;;;;21.63;10.32;;;9.80;99.90;;;;;;20912837;28;20044;-48
2023/03/10 15:32:45;;;;;;;25.38;11.15;;;8.80;99.90;;;;;;20911598;28;20431;-52
2023/03/10 15:42:47;;;;;;;22.52;11.70;;;8.30;99.90;;;;;;20911494;28;20543;-48
2023/03/10 15:52:52;;;;;;;28.73;13.30;;;8.00;99.90;;;;;;20910433;28;20041;-49
2023/03/10 16:02:54;;;;;;;34.03;14.68;;;7.80;99.90;;;;;;20909495;28;20033;-57
2023/03/10 16:12:58;;;;;;;22.55;12.25;;;7.50;99.90;;;;;;20909424;28;20037;-54
2023/03/10 16:22:59;;;;;;;23.95;12.90;;;7.70;99.90;;;;;;20907482;28;20029;-57
2023/03/10 16:33:01;;;;;;;17.50;12.20;;;7.80;99.90;;;;;;20907464;28;20437;-58
2023/03/10 16:43:03;;;;;;;26.10;14.27;;;7.50;99.90;;;;;;20906662;28;20254;-50
2023/03/10 16:53:04;;;;;;;34.05;15.27;;;7.10;99.90;;;;;;20905368;28;20390;-50
2023/03/10 17:03:06;;;;;;;30.67;14.15;;;6.40;99.90;;;;;;20904753;28;20090;-49
2023/03/10 17:13:08;;;;;;;25.63;14.18;;;5.90;99.90;;;;;;20904948;28;20041;-58
2023/03/10 17:23:10;;;;;;;24.70;12.75;;;5.40;99.90;;;;;;20903154;28;20612;-47
2023/03/10 17:33:11;;;;;;;16.02;9.25;;;5.10;99.90;;;;;;20902356;28;20437;-57
2023/03/10 17:43:13;;;;;;;14.93;7.65;;;4.80;99.90;;;;;;20902845;28;20500;-52
2023/03/10 17:53:14;;;;;;;8.80;5.07;;;4.70;99.90;;;;;;20901912;28;20136;-58
2023/03/10 18:03:16;;;;;;;5.13;3.13;;;4.90;99.90;;;;;;20901597;28;20037;-57
2023/03/10 18:13:18;;;;;;;6.95;2.50;;;5.20;99.90;;;;;;20901611;28;20067;-57
2023/03/10 18:23:20;;;;;;;21.08;11.15;;;6.00;99.90;;;;;;20900887;28;20025;-57
2023/03/10 18:33:22;;;;;;;20.27;10.52;;;5.90;99.90;;;;;;20901760;28;20052;-48
2023/03/10 18:43:25;;;;;;;12.27;6.25;;;5.40;99.90;;;;;;20910273;28;20033;-57
2023/03/10 18:53:27;;;;;;;10.13;4.78;;;5.00;99.90;;;;;;20913300;28;20037;-53
2023/03/10 19:03:29;;;;;;;9.40;4.80;;;4.60;99.90;;;;;;20913962;28;20063;-51
2023/03/10 19:13:32;;;;;;;9.05;4.32;;;4.50;99.90;;;;;;20914366;28;20053;-57
2023/03/10 19:23:33;;;;;;;6.68;3.83;;;5.40;99.90;;;;;;20912119;28;20082;-49
2023/03/10 19:33:37;;;;;;;6.75;3.88;;;5.40;99.90;;;;;;20911747;28;20454;-47
2023/03/10 19:43:38;;;;;;;7.55;3.50;;;5.00;99.90;;;;;;20911207;28;20371;-57
2023/03/10 19:53:40;;;;;;;6.78;3.70;;;4.90;99.90;;;;;;20908960;28;20101;-51
2023/03/10 20:03:42;;;;;;;8.23;3.00;;;4.80;99.90;;;;;;20909219;28;20516;-57
2023/03/10 20:13:43;;;;;;;7.28;3.70;;;4.50;99.90;;;;;;20907007;28;20049;-57
2023/03/10 20:23:47;;;;;;;6.07;3.15;;;4.20;99.90;;;;;;20907543;28;20028;-47
2023/03/10 20:33:49;;;;;;;5.07;3.00;;;4.00;99.90;;;;;;20905377;28;20162;-49
2023/03/10 20:43:52;;;;;;;7.68;3.03;;;3.90;99.90;;;;;;20906199;28;20405;-48
2023/03/10 20:53:55;;;;;;;3.65;2.03;;;3.70;99.90;;;;;;20905077;28;20102;-52
2023/03/10 21:03:57;;;;;;;4.40;2.03;;;3.70;99.90;;;;;;20903680;28;20370;-48
2023/03/10 21:13:59;;;;;;;3.70;1.92;;;3.70;99.90;;;;;;20901256;28;20045;-53
2023/03/10 21:24:02;;;;;;;4.47;2.08;;;3.60;99.90;;;;;;20903266;28;20041;-57
2023/03/10 21:34:04;;;;;;;3.35;1.58;;;3.40;99.90;;;;;;20902813;28;20037;-57
2023/03/10 21:44:06;;;;;;;4.50;1.52;;;3.30;99.90;;;;;;20903202;28;20379;-57
2023/03/10 21:54:09;;;;;;;2.92;1.30;;;3.30;99.90;;;;;;20900675;28;20033;-56
2023/03/10 22:04:11;;;;;;;2.28;1.40;;;3.30;99.90;;;;;;20901463;28;20482;-57
2023/03/10 22:14:13;;;;;;;2.70;1.40;;;3.50;99.90;;;;;;20904296;28;20083;-57
2023/03/10 22:24:14;;;;;;;3.00;1.05;;;3.40;99.90;;;;;;20916535;28;20032;-57
2023/03/10 22:34:16;;;;;;;1.73;0.80;;;3.60;99.90;;;;;;20916202;28;20036;-57
2023/03/10 22:44:18;;;;;;;2.22;0.70;;;3.80;99.90;;;;;;20915864;28;20406;-57
2023/03/10 22:54:19;;;;;;;2.33;1.08;;;3.90;99.90;;;;;;20914662;28;20029;-48
2023/03/10 23:04:21;;;;;;;0.80;0.50;;;4.00;99.90;;;;;;20914647;28;20032;-57
2023/03/10 23:14:22;;;;;;;1.55;0.40;;;4.10;99.90;;;;;;20914455;28;20087;-53
2023/03/10 23:24:24;;;;;;;0.98;0.60;;;4.10;99.90;;;;;;20911820;28;20033;-57
2023/03/10 23:34:26;;;;;;;0.90;0.50;;;4.00;99.90;;;;;;20911473;28;20029;-49
2023/03/10 23:44:27;;;;;;;1.52;0.40;;;4.70;99.90;;;;;;20911602;28;20158;-50
2023/03/10 23:54:29;;;;;;;0.65;0.30;;;5.20;99.90;;;;;;20910189;28;20032;-57
